Time;durP1;ratioP1;P1;durP2;ratioP2;P2;SDS_P1;SDS_P2;PMS_P1;PMS_P2;Temp;Humidity;BMP_temperature;BMP_pressure;BME280_temperature;BME280_humidity;BME280_pressure;Samples;Min_cycle;Max_cycle;Signal;HPM_P1;HPM_P2
2024/02/02 00:00:49;;;;;;;;;;;;;;;;;;6029368;23;93113;-61
2024/02/02 00:03:15;;;;;;;;;;;;;;;;;;6029103;23;93676;-64
2024/02/02 00:05:40;;;;;;;;;;;;;;;;;;6030057;23;92520;-60
2024/02/02 00:08:06;;;;;;;;;;;;;;;;;;6028412;23;93382;-62
2024/02/02 00:10:31;;;;;;;;;;;;;;;;;;6031626;23;93661;-64
2024/02/02 00:12:57;;;;;;;;;;;;;;;;;;6028615;23;92753;-65
2024/02/02 00:15:22;;;;;;;;;;;;;;;;;;6029456;23;92815;-61
2024/02/02 00:17:47;;;;;;;;;;;;;;;;;;6028973;23;92243;-60
2024/02/02 00:20:14;;;;;;;;;;;;;;;;;;6030126;23;92227;-60
2024/02/02 00:22:39;;;;;;;;;;;;;;;;;;6029553;23;93165;-61
2024/02/02 00:25:04;;;;;;;;;;;;;;;;;;6029495;23;92801;-64
2024/02/02 00:27:29;;;;;;;;;;;;;;;;;;6028223;23;94560;-64
2024/02/02 00:29:55;;;;;;;;;;;;;;;;;;6028667;23;93775;-64
2024/02/02 00:32:20;;;;;;;;;;;;;;;;;;6033256;23;92439;-65
2024/02/02 00:34:45;;;;;;;;;;;;;;;;;;6029348;23;93046;-64
2024/02/02 00:37:10;;;;;;;;;;;;;;;;;;6028749;23;92703;-65
2024/02/02 00:39:36;;;;;;;;;;;;;;;;;;6029208;23;92803;-65
2024/02/02 00:42:01;;;;;;;;;;;;;;;;;;6028975;23;92579;-65
2024/02/02 00:44:27;;;;;;;;;;;;;;;;;;6030713;23;91955;-64
2024/02/02 00:46:52;;;;;;;;;;;;;;;;;;6029571;23;92935;-65
2024/02/02 00:49:17;;;;;;;;;;;;;;;;;;6028633;23;92196;-64
2024/02/02 00:51:42;;;;;;;;;;;;;;;;;;6029213;23;93119;-64
2024/02/02 00:54:08;;;;;;;;;;;;;;;;;;6033170;23;93480;-66
2024/02/02 00:56:33;;;;;;;;;;;;;;;;;;6029881;23;92217;-66
2024/02/02 00:58:59;;;;;;;;;;;;;;;;;;6028804;23;93480;-64
2024/02/02 01:01:24;;;;;;;;;;;;;;;;;;6029406;23;92629;-65
2024/02/02 01:03:49;;;;;;;;;;;;;;;;;;6028923;23;92847;-66
2024/02/02 01:06:14;;;;;;;;;;;;;;;;;;6028871;23;93607;-66
2024/02/02 01:08:40;;;;;;;;;;;;;;;;;;6030643;23;93286;-66
2024/02/02 01:11:05;;;;;;;;;;;;;;;;;;6028809;23;93452;-66
2024/02/02 01:13:30;;;;;;;;;;;;;;;;;;6029494;23;92583;-65
2024/02/02 01:15:56;;;;;;;;;;;;;;;;;;6032542;23;93612;-65
2024/02/02 01:18:21;;;;;;;;;;;;;;;;;;6029391;23;93932;-65
2024/02/02 01:20:46;;;;;;;;;;;;;;;;;;6029479;23;92658;-62
2024/02/02 01:23:12;;;;;;;;;;;;;;;;;;6029534;23;92434;-63
2024/02/02 01:25:37;;;;;;;;;;;;;;;;;;6028947;23;92747;-64
2024/02/02 01:28:03;;;;;;;;;;;;;;;;;;6028838;23;92588;-64
2024/02/02 01:30:29;;;;;;;;;;;;;;;;;;6028665;23;92429;-65
2024/02/02 01:32:55;;;;;;;;;;;;;;;;;;6030265;23;93692;-65
2024/02/02 01:35:21;;;;;;;;;;;;;;;;;;6029120;23;92569;-62
2024/02/02 01:37:47;;;;;;;;;;;;;;;;;;6032599;23;92468;-65
2024/02/02 01:40:13;;;;;;;;;;;;;;;;;;6029285;23;94247;-64
2024/02/02 01:42:39;;;;;;;;;;;;;;;;;;6029652;23;92497;-62
2024/02/02 01:45:04;;;;;;;;;;;;;;;;;;6028782;23;93550;-65
2024/02/02 01:47:30;;;;;;;;;;;;;;;;;;6029395;23;93440;-64
2024/02/02 01:49:55;;;;;;;;;;;;;;;;;;6029799;23;92825;-63
2024/02/02 01:52:20;;;;;;;;;;;;;;;;;;6028675;23;92840;-63
2024/02/02 01:54:46;;;;;;;;;;;;;;;;;;6029304;23;92699;-62
2024/02/02 01:57:11;;;;;;;;;;;;;;;;;;6034650;23;91469;-60
2024/02/02 01:59:36;;;;;;;;;;;;;;;;;;6029117;23;93658;-60
2024/02/02 02:02:02;;;;;;;;;;;;;;;;;;6030033;23;92459;-61
2024/02/02 02:04:27;;;;;;;;;;;;;;;;;;6028775;23;93571;-60
2024/02/02 02:06:52;;;;;;;;;;;;;;;;;;6029426;23;92589;-60
2024/02/02 02:09:18;;;;;;;;;;;;;;;;;;6029371;23;92862;-63
2024/02/02 02:11:43;;;;;;;;;;;;;;;;;;6029984;23;92593;-62
2024/02/02 02:14:08;;;;;;;;;;;;;;;;;;6029058;23;92616;-66
2024/02/02 02:16:34;;;;;;;;;;;;;;;;;;6029447;23;92794;-63
2024/02/02 02:19:01;;;;;;;;;;;;;;;;;;6032933;23;93677;-65
2024/02/02 02:21:29;;;;;;;;;;;;;;;;;;6030333;23;91423;-65
2024/02/02 02:23:55;;;;;;;;;;;;;;;;;;6029963;23;92368;-61
2024/02/02 02:26:20;;;;;;;;;;;;;;;;;;6029800;23;93269;-60
2024/02/02 02:28:46;;;;;;;;;;;;;;;;;;6029553;23;93141;-65
2024/02/02 02:31:12;;;;;;;;;;;;;;;;;;6030196;23;93212;-65
2024/02/02 02:33:37;;;;;;;;;;;;;;;;;;6029441;23;93372;-62
2024/02/02 02:36:03;;;;;;;;;;;;;;;;;;6029419;23;92570;-66
2024/02/02 02:38:28;;;;;;;;;;;;;;;;;;6029626;23;92782;-66
2024/02/02 02:40:53;;;;;;;;;;;;;;;;;;6033486;23;93130;-65
2024/02/02 02:43:18;;;;;;;;;;;;;;;;;;6029762;23;92524;-66
2024/02/02 02:45:44;;;;;;;;;;;;;;;;;;6030480;23;91937;-65
2024/02/02 02:48:09;;;;;;;;;;;;;;;;;;6029230;23;92237;-65
2024/02/02 02:50:35;;;;;;;;;;;;;;;;;;6029539;23;94305;-65
2024/02/02 02:53:00;;;;;;;;;;;;;;;;;;6028758;23;93661;-61
2024/02/02 02:55:26;;;;;;;;;;;;;;;;;;6029502;23;92596;-63
2024/02/02 02:57:53;;;;;;;;;;;;;;;;;;6029412;23;92917;-62
2024/02/02 03:00:19;;;;;;;;;;;;;;;;;;6028697;23;92675;-65
2024/02/02 03:02:44;;;;;;;;;;;;;;;;;;6033121;23;92328;-64
2024/02/02 03:05:10;;;;;;;;;;;;;;;;;;6028928;23;93343;-65
2024/02/02 03:07:35;;;;;;;;;;;;;;;;;;6051692;23;92276;-64
2024/02/02 03:10:00;;;;;;;;;;;;;;;;;;6030310;23;92782;-63
2024/02/02 03:12:25;;;;;;;;;;;;;;;;;;6027372;23;93445;-65
2024/02/02 03:14:51;;;;;;;;;;;;;;;;;;6029114;23;94113;-66
2024/02/02 03:17:16;;;;;;;;;;;;;;;;;;6028795;23;93542;-65
2024/02/02 03:19:41;;;;;;;;;;;;;;;;;;6029316;23;92869;-65
2024/02/02 03:22:07;;;;;;;;;;;;;;;;;;6029095;23;92668;-65
2024/02/02 03:24:32;;;;;;;;;;;;;;;;;;6033081;23;92532;-64
2024/02/02 03:26:57;;;;;;;;;;;;;;;;;;6030483;23;92737;-64
2024/02/02 03:29:22;;;;;;;;;;;;;;;;;;6030072;23;92553;-64
2024/02/02 03:31:47;;;;;;;;;;;;;;;;;;6030141;23;92570;-63
2024/02/02 03:34:13;;;;;;;;;;;;;;;;;;6031432;23;91495;-64
2024/02/02 03:36:38;;;;;;;;;;;;;;;;;;6030284;23;92647;-65
2024/02/02 03:39:03;;;;;;;;;;;;;;;;;;6029939;23;92562;-65
2024/02/02 03:41:28;;;;;;;;;;;;;;;;;;6029627;23;93131;-64
2024/02/02 03:43:56;;;;;;;;;;;;;;;;;;6033523;23;92914;-64
2024/02/02 03:46:21;;;;;;;;;;;;;;;;;;6029981;23;93514;-65
2024/02/02 03:48:46;;;;;;;;;;;;;;;;;;6030076;23;93484;-64
2024/02/02 03:51:12;;;;;;;;;;;;;;;;;;6030526;23;92682;-65
2024/02/02 03:53:37;;;;;;;;;;;;;;;;;;6030230;23;92576;-64
2024/02/02 03:56:02;;;;;;;;;;;;;;;;;;6030055;23;92691;-65
2024/02/02 03:58:27;;;;;;;;;;;;;;;;;;6030552;23;92033;-62
2024/02/02 04:00:53;;;;;;;;;;;;;;;;;;6029913;23;92068;-62
2024/02/02 04:03:19;;;;;;;;;;;;;;;;;;6030481;23;92883;-64
2024/02/02 04:05:44;;;;;;;;;;;;;;;;;;6033561;23;93677;-65
2024/02/02 04:08:09;;;;;;;;;;;;;;;;;;6030128;23;93834;-64
2024/02/02 04:10:34;;;;;;;;;;;;;;;;;;6030166;23;92632;-64
2024/02/02 04:13:02;;;;;;;;;;;;;;;;;;6030093;23;92892;-64
2024/02/02 04:15:27;;;;;;;;;;;;;;;;;;6029820;23;93695;-66
2024/02/02 04:17:52;;;;;;;;;;;;;;;;;;6029695;23;92607;-65
2024/02/02 04:20:18;;;;;;;;;;;;;;;;;;6030099;23;92278;-66
2024/02/02 04:22:43;;;;;;;;;;;;;;;;;;6031224;23;92304;-66
2024/02/02 04:25:08;;;;;;;;;;;;;;;;;;6029521;23;93773;-61
2024/02/02 04:27:34;;;;;;;;;;;;;;;;;;6033695;23;92447;-61
2024/02/02 04:29:59;;;;;;;;;;;;;;;;;;6051509;23;94603;-64
2024/02/02 04:32:25;;;;;;;;;;;;;;;;;;6033410;23;92904;-64
2024/02/02 04:34:50;;;;;;;;;;;;;;;;;;6029800;23;93560;-66
2024/02/02 04:37:15;;;;;;;;;;;;;;;;;;6029912;23;92636;-64
2024/02/02 04:39:40;;;;;;;;;;;;;;;;;;6029659;23;92468;-60
2024/02/02 04:42:06;;;;;;;;;;;;;;;;;;6052639;23;93511;-60
2024/02/02 04:44:31;;;;;;;;;;;;;;;;;;6030324;23;92602;-60
2024/02/02 04:46:57;;;;;;;;;;;;;;;;;;6031088;23;91750;-62
2024/02/02 04:49:22;;;;;;;;;;;;;;;;;;6033755;23;93009;-61
2024/02/02 04:51:47;;;;;;;;;;;;;;;;;;6029286;23;92864;-66
2024/02/02 04:54:13;;;;;;;;;;;;;;;;;;6029038;23;93378;-65
2024/02/02 04:56:38;;;;;;;;;;;;;;;;;;6029494;23;92578;-65
2024/02/02 04:59:03;;;;;;;;;;;;;;;;;;6029130;23;92152;-65
2024/02/02 05:01:28;;;;;;;;;;;;;;;;;;6029536;23;92442;-64
2024/02/02 05:03:54;;;;;;;;;;;;;;;;;;6028919;23;92894;-64
2024/02/02 05:06:19;;;;;;;;;;;;;;;;;;6029737;23;92443;-62
2024/02/02 05:08:44;;;;;;;;;;;;;;;;;;6029839;23;92397;-60
2024/02/02 05:11:10;;;;;;;;;;;;;;;;;;6032734;23;91876;-60
2024/02/02 05:13:36;;;;;;;;;;;;;;;;;;6028375;23;92717;-62
2024/02/02 05:16:01;;;;;;;;;;;;;;;;;;6028989;23;93550;-63
2024/02/02 05:18:26;;;;;;;;;;;;;;;;;;6028639;23;93819;-60
2024/02/02 05:20:51;;;;;;;;;;;;;;;;;;6029175;23;92966;-62
2024/02/02 05:23:16;;;;;;;;;;;;;;;;;;6029852;23;92886;-60
2024/02/02 05:25:42;;;;;;;;;;;;;;;;;;6029430;23;92602;-62
2024/02/02 05:28:07;;;;;;;;;;;;;;;;;;6028802;23;93573;-60
2024/02/02 05:30:33;;;;;;;;;;;;;;;;;;6029559;23;92598;-65
2024/02/02 05:32:58;;;;;;;;;;;;;;;;;;6033198;23;92193;-64
2024/02/02 05:35:23;;;;;;;;;;;;;;;;;;6030130;23;92979;-64
2024/02/02 05:37:49;;;;;;;;;;;;;;;;;;6029921;23;92176;-64
2024/02/02 05:40:14;;;;;;;;;;;;;;;;;;6029881;23;92573;-61
2024/02/02 05:42:39;;;;;;;;;;;;;;;;;;6028307;23;93634;-63
2024/02/02 05:45:05;;;;;;;;;;;;;;;;;;6029313;23;92774;-63
2024/02/02 05:47:31;;;;;;;;;;;;;;;;;;6028883;23;93239;-64
2024/02/02 05:49:56;;;;;;;;;;;;;;;;;;6029616;23;92306;-64
2024/02/02 05:52:21;;;;;;;;;;;;;;;;;;6031736;23;92378;-65
2024/02/02 05:54:46;;;;;;;;;;;;;;;;;;6027316;23;92641;-65
2024/02/02 05:57:12;;;;;;;;;;;;;;;;;;6028470;23;92526;-66
2024/02/02 05:59:37;;;;;;;;;;;;;;;;;;6028653;23;91447;-64
2024/02/02 06:02:03;;;;;;;;;;;;;;;;;;6028092;23;92566;-65
2024/02/02 06:04:28;;;;;;;;;;;;;;;;;;6028621;23;92932;-65
2024/02/02 06:06:53;;;;;;;;;;;;;;;;;;6027667;23;93534;-61
2024/02/02 06:09:18;;;;;;;;;;;;;;;;;;6028147;23;92891;-64
2024/02/02 06:11:44;;;;;;;;;;;;;;;;;;6027515;23;92194;-61
2024/02/02 06:14:09;;;;;;;;;;;;;;;;;;6029895;23;93550;-63
2024/02/02 06:16:35;;;;;;;;;;;;;;;;;;6028305;23;92288;-61
2024/02/02 06:19:00;;;;;;;;;;;;;;;;;;6027721;23;93822;-60
2024/02/02 06:21:25;;;;;;;;;;;;;;;;;;6027174;23;92641;-61
2024/02/02 06:23:50;;;;;;;;;;;;;;;;;;6028046;23;92037;-60
2024/02/02 06:26:16;;;;;;;;;;;;;;;;;;6028567;23;92452;-60
2024/02/02 06:28:41;;;;;;;;;;;;;;;;;;6027890;23;92636;-61
2024/02/02 06:31:06;;;;;;;;;;;;;;;;;;6027742;23;93618;-62
2024/02/02 06:33:32;;;;;;;;;;;;;;;;;;6028199;23;92938;-64
2024/02/02 06:35:57;;;;;;;;;;;;;;;;;;6031128;23;93585;-64
2024/02/02 06:38:22;;;;;;;;;;;;;;;;;;6026800;23;92470;-69
2024/02/02 06:40:47;;;;;;;;;;;;;;;;;;6026862;23;92682;-67
2024/02/02 06:43:13;;;;;;;;;;;;;;;;;;6027897;23;92819;-67
2024/02/02 06:45:39;;;;;;;;;;;;;;;;;;6027899;23;92907;-68
2024/02/02 06:48:04;;;;;;;;;;;;;;;;;;6027415;23;92797;-68
2024/02/02 06:50:30;;;;;;;;;;;;;;;;;;6026832;23;93822;-63
2024/02/02 06:52:55;;;;;;;;;;;;;;;;;;6027463;23;93028;-66
2024/02/02 06:55:20;;;;;;;;;;;;;;;;;;6026770;23;93570;-64
2024/02/02 06:57:46;;;;;;;;;;;;;;;;;;6031222;23;92239;-67
2024/02/02 07:00:13;;;;;;;;;;;;;;;;;;6028083;23;92623;-67
2024/02/02 07:02:39;;;;;;;;;;;;;;;;;;6029228;23;93378;-68
2024/02/02 07:05:04;;;;;;;;;;;;;;;;;;6028755;23;93203;-68
2024/02/02 07:07:29;;;;;;;;;;;;;;;;;;6028055;23;94094;-68
2024/02/02 07:09:58;;;;;;;;;;;;;;;;;;6028901;23;92732;-68
2024/02/02 07:12:38;;;;;;;;;;;;;;;;;;6029509;23;92282;-62
2024/02/02 07:15:10;;;;;;;;;;;;;;;;;;6028533;23;92714;-67
2024/02/02 07:17:36;;;;;;;;;;;;;;;;;;6028661;23;92755;-65
2024/02/02 07:20:06;;;;;;;;;;;;;;;;;;6031444;23;93539;-61
2024/02/02 07:22:39;;;;;;;;;;;;;;;;;;6028852;23;92152;-65
2024/02/02 07:25:25;;;;;;;;;;;;;;;;;;6026858;23;92739;-63
2024/02/02 07:27:54;;;;;;;;;;;;;;;;;;6025443;23;93576;-61
2024/02/02 07:30:38;;;;;;;;;;;;;;;;;;6027874;23;92798;-66
2024/02/02 07:33:13;;;;;;;;;;;;;;;;;;6029209;23;93633;-65
2024/02/02 07:35:38;;;;;;;;;;;;;;;;;;6028921;23;92675;-61
2024/02/02 07:38:04;;;;;;;;;;;;;;;;;;6029640;23;91434;-62
2024/02/02 07:40:29;;;;;;;;;;;;;;;;;;6029052;23;92640;-64
2024/02/02 07:42:55;;;;;;;;;;;;;;;;;;6030961;23;92810;-67
2024/02/02 07:45:20;;;;;;;;;;;;;;;;;;6027501;23;93588;-68
2024/02/02 07:47:45;;;;;;;;;;;;;;;;;;6029033;23;92784;-67
2024/02/02 07:50:11;;;;;;;;;;;;;;;;;;6028664;23;92596;-64
2024/02/02 07:52:36;;;;;;;;;;;;;;;;;;6029202;23;92448;-66
2024/02/02 07:55:01;;;;;;;;;;;;;;;;;;6028338;23;92564;-66
2024/02/02 07:57:26;;;;;;;;;;;;;;;;;;6028519;23;92239;-67
2024/02/02 07:59:52;;;;;;;;;;;;;;;;;;6027204;23;92405;-66
2024/02/02 08:02:18;;;;;;;;;;;;;;;;;;6033461;23;92298;-68
2024/02/02 08:04:44;;;;;;;;;;;;;;;;;;6028464;23;92894;-67
2024/02/02 08:07:09;;;;;;;;;;;;;;;;;;6028590;23;93516;-66
2024/02/02 08:09:34;;;;;;;;;;;;;;;;;;6028732;23;93474;-69
2024/02/02 08:11:59;;;;;;;;;;;;;;;;;;6028691;23;93242;-67
2024/02/02 08:14:24;;;;;;;;;;;;;;;;;;6029038;23;92626;-68
2024/02/02 08:16:50;;;;;;;;;;;;;;;;;;6028624;23;92860;-67
2024/02/02 08:19:15;;;;;;;;;;;;;;;;;;6029186;23;92804;-64
2024/02/02 08:21:40;;;;;;;;;;;;;;;;;;6028340;23;92850;-67
2024/02/02 08:24:05;;;;;;;;;;;;;;;;;;6032747;23;92383;-63
2024/02/02 08:26:31;;;;;;;;;;;;;;;;;;6030106;23;91876;-62
2024/02/02 08:28:56;;;;;;;;;;;;;;;;;;6028530;23;92183;-60
2024/02/02 08:31:21;;;;;;;;;;;;;;;;;;6029197;23;92841;-61
2024/02/02 08:33:47;;;;;;;;;;;;;;;;;;6028603;23;93790;-60
2024/02/02 08:36:12;;;;;;;;;;;;;;;;;;6028821;23;92199;-62
2024/02/02 08:38:37;;;;;;;;;;;;;;;;;;6027826;23;93081;-64
2024/02/02 08:41:04;;;;;;;;;;;;;;;;;;6028694;23;93139;-62
2024/02/02 08:43:29;;;;;;;;;;;;;;;;;;6028909;23;92198;-60
2024/02/02 08:46:08;;;;;;;;;;;;;;;;;;6032086;23;92577;-67
2024/02/02 08:48:44;;;;;;;;;;;;;;;;;;6029996;23;92949;-72
2024/02/02 08:51:09;;;;;;;;;;;;;;;;;;6031400;23;92336;-69
2024/02/02 08:53:34;;;;;;;;;;;;;;;;;;6030382;23;92607;-62
2024/02/02 08:56:01;;;;;;;;;;;;;;;;;;6029989;23;92299;-66
2024/02/02 08:58:34;;;;;;;;;;;;;;;;;;6029145;23;93133;-65
2024/02/02 09:01:00;;;;;;;;;;;;;;;;;;6026499;23;92683;-62
2024/02/02 09:03:27;;;;;;;;;;;;;;;;;;6027895;23;92832;-64
2024/02/02 09:05:52;;;;;;;;;;;;;;;;;;6029089;23;93441;-64
2024/02/02 09:08:23;;;;;;;;;;;;;;;;;;6033565;23;92513;-67
2024/02/02 09:10:55;;;;;;;;;;;;;;;;;;6051873;23;94891;-64
2024/02/02 09:13:23;;;;;;;;;;;;;;;;;;6029345;23;92785;-69
2024/02/02 09:15:48;;;;;;;;;;;;;;;;;;6030146;23;91910;-64
2024/02/02 09:18:22;;;;;;;;;;;;;;;;;;6029297;23;92712;-66
2024/02/02 09:20:49;;;;;;;;;;;;;;;;;;6029857;23;94509;-68
2024/02/02 09:23:14;;;;;;;;;;;;;;;;;;6028081;23;93186;-68
2024/02/02 09:25:44;;;;;;;;;;;;;;;;;;6029112;23;93144;-68
2024/02/02 09:28:39;;;;;;;;;;;;;;;;;;6029302;23;92552;-68
2024/02/02 09:31:06;;;;;;;;;;;;;;;;;;6025177;23;92355;-69
2024/02/02 09:33:31;;;;;;;;;;;;;;;;;;6026654;23;93625;-66
2024/02/02 09:36:03;;;;;;;;;;;;;;;;;;6028395;23;92892;-69
2024/02/02 09:38:29;;;;;;;;;;;;;;;;;;6028532;23;93399;-66
2024/02/02 09:41:00;;;;;;;;;;;;;;;;;;6052978;23;92243;-71
2024/02/02 09:43:44;;;;;;;;;;;;;;;;;;6029430;23;92644;-70
2024/02/02 09:46:22;;;;;;;;;;;;;;;;;;6029088;23;92574;-70
2024/02/02 09:48:56;;;;;;;;;;;;;;;;;;6029089;23;93813;-71
2024/02/02 09:51:31;;;;;;;;;;;;;;;;;;6030554;23;92484;-71
2024/02/02 09:54:10;;;;;;;;;;;;;;;;;;6033429;23;92480;-71
2024/02/02 09:56:45;;;;;;;;;;;;;;;;;;6030432;23;92854;-67
2024/02/02 09:59:29;;;;;;;;;;;;;;;;;;6028799;23;93527;-63
2024/02/02 10:02:10;;;;;;;;;;;;;;;;;;6029372;23;92646;-61
2024/02/02 10:04:41;;;;;;;;;;;;;;;;;;6029805;23;92950;-61
2024/02/02 10:07:07;;;;;;;;;;;;;;;;;;6029914;23;93073;-69
2024/02/02 10:09:47;;;;;;;;;;;;;;;;;;6029143;23;93648;-69
2024/02/02 10:12:12;;;;;;;;;;;;;;;;;;6028993;23;93037;-67
2024/02/02 10:14:38;;;;;;;;;;;;;;;;;;6031389;23;93736;-63
2024/02/02 10:17:12;;;;;;;;;;;;;;;;;;6028756;23;92702;-65
2024/02/02 10:19:55;;;;;;;;;;;;;;;;;;6029411;23;92649;-62
2024/02/02 10:22:47;;;;;;;;;;;;;;;;;;6029649;23;92576;-64
2024/02/02 10:25:12;;;;;;;;;;;;;;;;;;6029663;23;92643;-65
2024/02/02 10:27:48;;;;;;;;;;;;;;;;;;6029318;23;92628;-65
2024/02/02 10:30:32;;;;;;;;;;;;;;;;;;6029306;23;92647;-62
2024/02/02 10:33:08;;;;;;;;;;;;;;;;;;6027541;23;91852;-61
2024/02/02 10:35:45;;;;;;;;;;;;;;;;;;6026826;23;92899;-62
2024/02/02 10:38:19;;;;;;;;;;;;;;;;;;6032173;23;92633;-63
2024/02/02 10:41:07;;;;;;;;;;;;;;;;;;6028161;23;94348;-60
2024/02/02 10:43:42;;;;;;;;;;;;;;;;;;6012347;23;93232;-61
2024/02/02 10:46:08;;;;;;;;;;;;;;;;;;6028117;23;92137;-61
2024/02/02 10:48:36;;;;;;;;;;;;;;;;;;6028091;23;92823;-62
2024/02/02 10:51:07;;;;;;;;;;;;;;;;;;6051360;23;95922;-64
2024/02/02 10:53:45;;;;;;;;;;;;;;;;;;6028860;23;92325;-70
2024/02/02 10:56:22;;;;;;;;;;;;;;;;;;6028559;23;93228;-70
2024/02/02 10:58:53;;;;;;;;;;;;;;;;;;6028344;23;93019;-67
2024/02/02 11:01:30;;;;;;;;;;;;;;;;;;6032078;23;92467;-68
2024/02/02 11:04:02;;;;;;;;;;;;;;;;;;6026491;23;94051;-69
2024/02/02 11:06:42;;;;;;;;;;;;;;;;;;6027971;23;93540;-66
2024/02/02 11:09:26;;;;;;;;;;;;;;;;;;6027856;23;93182;-67
2024/02/02 11:12:00;;;;;;;;;;;;;;;;;;6027960;23;93713;-69
2024/02/02 11:14:25;;;;;;;;;;;;;;;;;;6028231;23;92850;-67
2024/02/02 11:16:53;;;;;;;;;;;;;;;;;;6027793;23;93077;-68
2024/02/02 11:19:37;;;;;;;;;;;;;;;;;;6026946;23;92645;-71
2024/02/02 11:22:22;;;;;;;;;;;;;;;;;;6027058;23;92512;-71
2024/02/02 11:25:06;;;;;;;;;;;;;;;;;;6032522;23;92261;-70
2024/02/02 11:27:34;;;;;;;;;;;;;;;;;;6028127;23;92635;-70
2024/02/02 11:30:00;;;;;;;;;;;;;;;;;;6026887;23;93095;-69
2024/02/02 11:32:25;;;;;;;;;;;;;;;;;;6027105;23;93638;-70
2024/02/02 11:35:01;;;;;;;;;;;;;;;;;;6026983;23;92302;-62
2024/02/02 11:37:30;;;;;;;;;;;;;;;;;;6026459;23;92784;-67
2024/02/02 11:39:56;;;;;;;;;;;;;;;;;;6024844;23;93778;-63
2024/02/02 11:42:23;;;;;;;;;;;;;;;;;;6025364;23;93063;-69
2024/02/02 11:44:49;;;;;;;;;;;;;;;;;;6026286;23;93503;-68
2024/02/02 11:47:18;;;;;;;;;;;;;;;;;;6031761;23;93682;-68
2024/02/02 11:49:46;;;;;;;;;;;;;;;;;;6029775;23;92438;-65
2024/02/02 11:52:21;;;;;;;;;;;;;;;;;;6027887;23;93762;-70
2024/02/02 11:55:14;;;;;;;;;;;;;;;;;;6028577;23;92617;-67
2024/02/02 11:57:43;;;;;;;;;;;;;;;;;;6026247;23;94175;-69
2024/02/02 12:00:19;;;;;;;;;;;;;;;;;;6027463;23;92868;-71
2024/02/02 12:03:00;;;;;;;;;;;;;;;;;;6029584;23;92242;-69
2024/02/02 12:05:32;;;;;;;;;;;;;;;;;;6028302;23;92815;-70
2024/02/02 12:08:24;;;;;;;;;;;;;;;;;;6028933;23;92717;-66
2024/02/02 12:10:50;;;;;;;;;;;;;;;;;;6031705;23;92508;-64
2024/02/02 12:13:21;;;;;;;;;;;;;;;;;;6028900;23;92757;-66
2024/02/02 12:15:46;;;;;;;;;;;;;;;;;;6028213;23;91891;-66
2024/02/02 12:18:11;;;;;;;;;;;;;;;;;;6027440;23;92658;-69
2024/02/02 12:20:39;;;;;;;;;;;;;;;;;;6029000;23;92690;-70
2024/02/02 12:23:05;;;;;;;;;;;;;;;;;;6028934;23;93518;-63
2024/02/02 12:25:30;;;;;;;;;;;;;;;;;;6030131;23;93258;-69
2024/02/02 12:27:56;;;;;;;;;;;;;;;;;;6029317;23;92801;-69
2024/02/02 12:30:22;;;;;;;;;;;;;;;;;;6033222;23;92643;-70
2024/02/02 12:32:54;;;;;;;;;;;;;;;;;;6029493;23;94176;-70
2024/02/02 12:35:20;;;;;;;;;;;;;;;;;;6029856;23;93182;-71
2024/02/02 12:37:47;;;;;;;;;;;;;;;;;;6029663;23;92868;-63
2024/02/02 12:40:12;;;;;;;;;;;;;;;;;;6029239;23;93068;-61
2024/02/02 12:42:38;;;;;;;;;;;;;;;;;;6029333;23;92670;-62
2024/02/02 12:45:03;;;;;;;;;;;;;;;;;;6029149;23;92540;-61
2024/02/02 12:47:29;;;;;;;;;;;;;;;;;;6028499;23;93220;-61
2024/02/02 12:49:54;;;;;;;;;;;;;;;;;;6029911;23;93207;-63
2024/02/02 12:52:20;;;;;;;;;;;;;;;;;;6033143;23;93066;-68
2024/02/02 12:54:45;;;;;;;;;;;;;;;;;;6028082;23;92836;-64
2024/02/02 12:57:10;;;;;;;;;;;;;;;;;;6029288;23;92812;-66
2024/02/02 12:59:36;;;;;;;;;;;;;;;;;;6028335;23;93156;-70
2024/02/02 13:02:01;;;;;;;;;;;;;;;;;;6029887;23;92732;-70
2024/02/02 13:04:26;;;;;;;;;;;;;;;;;;6030617;23;92325;-64
2024/02/02 13:06:52;;;;;;;;;;;;;;;;;;6029768;23;92611;-65
2024/02/02 13:09:24;;;;;;;;;;;;;;;;;;6052752;23;92555;-64
2024/02/02 13:11:52;;;;;;;;;;;;;;;;;;6029230;23;93576;-65
2024/02/02 13:14:30;;;;;;;;;;;;;;;;;;6033948;23;93381;-63
2024/02/02 13:17:03;;;;;;;;;;;;;;;;;;6029248;23;93807;-64
2024/02/02 13:19:30;;;;;;;;;;;;;;;;;;6029689;23;94436;-62
2024/02/02 13:22:00;;;;;;;;;;;;;;;;;;6029203;23;92625;-62
2024/02/02 13:24:26;;;;;;;;;;;;;;;;;;6029870;23;92726;-63
2024/02/02 13:27:01;;;;;;;;;;;;;;;;;;6029700;23;92575;-64
2024/02/02 13:29:27;;;;;;;;;;;;;;;;;;6031054;23;91867;-64
2024/02/02 13:31:52;;;;;;;;;;;;;;;;;;6030151;23;92835;-65
2024/02/02 13:34:17;;;;;;;;;;;;;;;;;;6029876;23;92974;-64
2024/02/02 13:36:43;;;;;;;;;;;;;;;;;;6032990;23;93142;-65
2024/02/02 13:39:18;;;;;;;;;;;;;;;;;;6029246;23;93722;-64
2024/02/02 13:41:44;;;;;;;;;;;;;;;;;;6051634;23;92271;-65
2024/02/02 13:44:11;;;;;;;;;;;;;;;;;;6029253;23;92422;-64
2024/02/02 13:46:46;;;;;;;;;;;;;;;;;;6026669;23;92697;-62
2024/02/02 13:49:45;;;;;;;;;;;;;;;;;;6027287;23;92231;-65
2024/02/02 13:52:10;;;;;;;;;;;;;;;;;;6021035;23;93693;-65
2024/02/02 13:54:35;;;;;;;;;;;;;;;;;;6028138;23;92727;-64
2024/02/02 13:57:01;;;;;;;;;;;;;;;;;;6025923;23;93076;-65
2024/02/02 13:59:26;;;;;;;;;;;;;;;;;;6029586;23;92784;-64
2024/02/02 14:01:52;;;;;;;;;;;;;;;;;;6027693;23;93148;-63
2024/02/02 14:04:24;;;;;;;;;;;;;;;;;;6027163;23;94042;-61
2024/02/02 14:06:50;;;;;;;;;;;;;;;;;;6029463;23;92604;-63
2024/02/02 14:09:20;;;;;;;;;;;;;;;;;;6029579;23;92450;-64
2024/02/02 14:11:45;;;;;;;;;;;;;;;;;;6028209;23;93582;-66
2024/02/02 14:14:10;;;;;;;;;;;;;;;;;;6029593;23;92975;-61
2024/02/02 14:16:35;;;;;;;;;;;;;;;;;;6028860;23;93072;-62
2024/02/02 14:19:02;;;;;;;;;;;;;;;;;;6033555;23;92277;-61
2024/02/02 14:21:29;;;;;;;;;;;;;;;;;;6029418;23;92708;-61
2024/02/02 14:24:08;;;;;;;;;;;;;;;;;;6029335;23;93465;-62
2024/02/02 14:26:33;;;;;;;;;;;;;;;;;;6027331;23;93485;-61
2024/02/02 14:28:59;;;;;;;;;;;;;;;;;;6029071;23;92514;-61
2024/02/02 14:31:25;;;;;;;;;;;;;;;;;;6029059;23;92491;-62
2024/02/02 14:33:50;;;;;;;;;;;;;;;;;;6029175;23;93115;-65
2024/02/02 14:36:16;;;;;;;;;;;;;;;;;;6028733;23;92602;-64
2024/02/02 14:38:42;;;;;;;;;;;;;;;;;;6029049;23;93307;-64
2024/02/02 14:41:07;;;;;;;;;;;;;;;;;;6033331;23;92733;-65
2024/02/02 14:43:32;;;;;;;;;;;;;;;;;;6030282;23;92498;-65
2024/02/02 14:45:59;;;;;;;;;;;;;;;;;;6029425;23;92707;-63
2024/02/02 14:48:24;;;;;;;;;;;;;;;;;;6028670;23;92544;-61
2024/02/02 14:50:50;;;;;;;;;;;;;;;;;;6028819;23;93841;-61
2024/02/02 14:53:16;;;;;;;;;;;;;;;;;;6029214;23;92683;-61
2024/02/02 14:55:41;;;;;;;;;;;;;;;;;;6029367;23;92762;-63
2024/02/02 14:58:07;;;;;;;;;;;;;;;;;;6029424;23;92594;-61
2024/02/02 15:00:33;;;;;;;;;;;;;;;;;;6028086;23;92705;-68
2024/02/02 15:02:59;;;;;;;;;;;;;;;;;;6032281;23;92231;-64
2024/02/02 15:05:24;;;;;;;;;;;;;;;;;;6028718;23;92792;-64
2024/02/02 15:07:50;;;;;;;;;;;;;;;;;;6028807;23;91724;-63
2024/02/02 15:10:15;;;;;;;;;;;;;;;;;;6028597;23;92844;-62
2024/02/02 15:12:42;;;;;;;;;;;;;;;;;;6029506;23;92963;-63
2024/02/02 15:15:07;;;;;;;;;;;;;;;;;;6028165;23;94063;-62
2024/02/02 15:17:32;;;;;;;;;;;;;;;;;;6028916;23;93025;-64
2024/02/02 15:19:58;;;;;;;;;;;;;;;;;;6028509;23;94201;-63
2024/02/02 15:22:23;;;;;;;;;;;;;;;;;;6029476;23;92833;-65
2024/02/02 15:24:48;;;;;;;;;;;;;;;;;;6033864;23;92633;-64
2024/02/02 15:27:16;;;;;;;;;;;;;;;;;;6030538;23;92696;-64
2024/02/02 15:29:41;;;;;;;;;;;;;;;;;;6030542;23;92474;-64
2024/02/02 15:32:06;;;;;;;;;;;;;;;;;;6029840;23;91814;-64
2024/02/02 15:34:31;;;;;;;;;;;;;;;;;;6028229;23;92660;-64
2024/02/02 15:36:57;;;;;;;;;;;;;;;;;;6028286;23;93006;-63
2024/02/02 15:39:22;;;;;;;;;;;;;;;;;;6027814;23;94054;-63
2024/02/02 15:41:47;;;;;;;;;;;;;;;;;;6028165;23;92641;-64
2024/02/02 15:44:12;;;;;;;;;;;;;;;;;;6028426;23;92429;-62
2024/02/02 15:46:38;;;;;;;;;;;;;;;;;;6032733;23;92544;-64
2024/02/02 15:49:03;;;;;;;;;;;;;;;;;;6029454;23;92868;-64
2024/02/02 15:51:30;;;;;;;;;;;;;;;;;;6051993;23;95915;-62
2024/02/02 15:53:55;;;;;;;;;;;;;;;;;;6029174;23;92575;-61
2024/02/02 15:56:23;;;;;;;;;;;;;;;;;;6031186;23;92518;-64
2024/02/02 15:58:48;;;;;;;;;;;;;;;;;;6029785;23;93276;-61
2024/02/02 16:01:13;;;;;;;;;;;;;;;;;;6029291;23;92969;-62
2024/02/02 16:03:40;;;;;;;;;;;;;;;;;;6028682;23;93140;-62
2024/02/02 16:06:12;;;;;;;;;;;;;;;;;;6029010;23;93805;-62
2024/02/02 16:08:37;;;;;;;;;;;;;;;;;;6032945;23;92578;-64
2024/02/02 16:11:03;;;;;;;;;;;;;;;;;;6030382;23;92661;-63
2024/02/02 16:13:31;;;;;;;;;;;;;;;;;;6029956;23;93063;-61
2024/02/02 16:15:59;;;;;;;;;;;;;;;;;;6029160;23;92852;-64
2024/02/02 16:18:24;;;;;;;;;;;;;;;;;;6029153;23;92849;-62
2024/02/02 16:20:50;;;;;;;;;;;;;;;;;;6030424;23;91849;-63
2024/02/02 16:23:15;;;;;;;;;;;;;;;;;;6030077;23;92138;-64
2024/02/02 16:25:41;;;;;;;;;;;;;;;;;;6027867;23;93168;-63
2024/02/02 16:28:06;;;;;;;;;;;;;;;;;;6032135;23;93341;-61
2024/02/02 16:30:32;;;;;;;;;;;;;;;;;;6028443;23;92545;-61
2024/02/02 16:32:57;;;;;;;;;;;;;;;;;;6028397;23;92482;-61
2024/02/02 16:35:23;;;;;;;;;;;;;;;;;;6028618;23;92767;-61
2024/02/02 16:37:48;;;;;;;;;;;;;;;;;;6028197;23;93947;-61
2024/02/02 16:40:13;;;;;;;;;;;;;;;;;;6028794;23;92183;-61
2024/02/02 16:42:40;;;;;;;;;;;;;;;;;;6029017;23;92695;-61
2024/02/02 16:45:05;;;;;;;;;;;;;;;;;;6029243;23;91917;-62
2024/02/02 16:47:31;;;;;;;;;;;;;;;;;;6029420;23;92605;-63